Hostname: pi-star
Pi-Star:3.4.17 / Dashboard: 20190905

Pi-Star Digital Voice Dashboard for MW0MWZ

Dashboard | Admin | Configuration



DAPNET Gateway Activity
Time (BST)Time in BST time zone Time SlotMessage Mode TargetRIC / CapCode of the receiving Pager MessageMessage contents
10:42:00 Sep 21st Slot 0 0002504 [Skyper OTA Time] 094200 210919
10:41:59 Sep 21st Slot 0 2034138 EIF-NAGIOS PROBLEM: raspager.db0eif.ampr.org UniPager Queue WARNING
10:41:59 Sep 21st Slot 0 0048159 EIF-NAGIOS PROBLEM: raspager.db0eif.ampr.org UniPager Queue WARNING
10:41:59 Sep 21st Slot 0 0039573 EIF-NAGIOS PROBLEM: raspager.db0eif.ampr.org UniPager Queue WARNING
10:40:16 Sep 21st Slot 0 0000008 mw0mwz
10:38:08 Sep 21st Slot 12 0002504 [Skyper OTA Time] 093800 210919
10:36:00 Sep 21st Slot 8 0002504 [Skyper OTA Time] 093600 210919
10:32:09 Sep 21st Slot 4 0002504 [Skyper OTA Time] 093200 210919
10:30:03 Sep 21st Slot 0 0004520 [Skyper Rubric:60 Msg:2] DAPNET-Core Stats PrivMsgs:346 News:476Nodes:4/8 TXs:486/1557
10:30:03 Sep 21st Slot 0 0001060 DAPNET-Core Stats PrivMsgs:346 News:476Nodes:4/8 TXs:486/1557
10:30:01 Sep 21st Slot 0 0000008 mw0mwz
10:30:01 Sep 21st Slot 0 0002504 [Skyper OTA Time] 093000 210919
10:26:11 Sep 21st Slot 12 0002504 [Skyper OTA Time] 092600 210919
10:24:03 Sep 21st Slot 8 0002504 [Skyper OTA Time] 092400 210919
10:22:20 Sep 21st Slot 8 0004520 [Skyper Rubric:60 Msg:1] DXCluster bei DB0SDAges:400 KW:195 KWCW:92 4/6m:7 V/UHF:44 SHF:4
10:22:20 Sep 21st Slot 8 0001060 DXCluster bei DB0SDAges:400 KW:195 KWCW:92 4/6m:7 V/UHF:44 SHF:4
10:22:00 Sep 21st Slot 4 0002504 [Skyper OTA Time] 092200 210919
10:21:06 Sep 21st Slot 12 0351172 M0GLJ: LBBG 210900Z 05006KT 360V090 CAVOK 18/00 Q1027 NOSIG
10:21:04 Sep 21st Slot 12 0351172 M0GLJ: LCPH 210900Z 17007KT 120V210 9999 FEW013 28/21 Q1012
10:21:04 Sep 21st Slot 12 0351172 M0GLJ: GCLP 210900Z 03014KT 9999 FEW020 24/18 Q1017 NOSIG